createdAt,value
2023-03-02T00:00:27.512Z,-4.83
2023-03-02T00:01:27.469Z,-4.84
2023-03-02T00:02:27.691Z,-4.83
2023-03-02T00:03:27.585Z,-4.84
2023-03-02T00:04:27.406Z,-4.84
2023-03-02T00:05:27.645Z,-4.92
2023-03-02T00:06:27.602Z,-4.9
2023-03-02T00:07:27.339Z,-4.84
2023-03-02T00:08:27.049Z,-4.89
2023-03-02T00:09:27.529Z,-4.93
2023-03-02T00:10:27.516Z,-4.87
2023-03-02T00:11:27.286Z,-4.84
2023-03-02T00:12:26.983Z,-4.9
2023-03-02T00:13:27.204Z,-4.9
2023-03-02T00:14:27.182Z,-4.92
2023-03-02T00:15:27.147Z,-4.9
2023-03-02T00:16:27.333Z,-4.93
2023-03-02T00:17:27.103Z,-4.86
2023-03-02T00:18:27.107Z,-4.9
2023-03-02T00:19:27.393Z,-4.83
2023-03-02T00:20:27.069Z,-4.9
2023-03-02T00:21:27.050Z,-4.86
2023-03-02T00:22:26.993Z,-4.84
2023-03-02T00:23:26.967Z,-4.86
2023-03-02T00:24:26.948Z,-4.72
2023-03-02T00:25:27.234Z,-4.75
2023-03-02T00:26:27.175Z,-4.73
2023-03-02T00:27:27.151Z,-4.75
2023-03-02T00:28:27.138Z,-4.69
2023-03-02T00:29:26.839Z,-4.71
2023-03-02T00:30:26.824Z,-4.72
2023-03-02T00:31:27.011Z,-4.66
2023-03-02T00:32:27.299Z,-4.76
2023-03-02T00:33:27.020Z,-4.75
2023-03-02T00:34:26.983Z,-4.71
2023-03-02T00:35:26.888Z,-4.68
2023-03-02T00:36:26.966Z,-4.75
2023-03-02T00:37:26.950Z,-4.68
2023-03-02T00:38:27.078Z,-4.79
2023-03-02T00:39:26.643Z,-4.86
2023-03-02T00:40:26.851Z,-4.87
2023-03-02T00:41:26.833Z,-4.93
2023-03-02T00:42:26.594Z,-4.87
2023-03-02T00:43:26.542Z,-4.92
2023-03-02T00:44:26.502Z,-4.93
2023-03-02T00:45:26.511Z,-5
2023-03-02T00:46:26.898Z,-4.94
2023-03-02T00:47:26.722Z,-4.98
2023-03-02T00:48:26.682Z,-5.04
2023-03-02T00:49:26.660Z,-5.05
2023-03-02T00:50:26.640Z,-5.04
2023-03-02T00:51:26.686Z,-5.04
2023-03-02T00:52:26.772Z,-5.02
2023-03-02T00:53:26.776Z,-5.02
2023-03-02T00:54:26.721Z,-5.02
2023-03-02T00:55:26.182Z,-5.02
2023-03-02T00:56:26.424Z,-5.02
2023-03-02T00:57:26.400Z,-5.02
2023-03-02T00:58:26.379Z,-5
2023-03-02T00:59:26.127Z,-5.05
2023-03-02T01:00:26.589Z,-5.04
2023-03-02T01:01:27.117Z,-5.04
2023-03-02T01:02:26.765Z,-5.01
2023-03-02T01:03:26.429Z,-5.02
2023-03-02T01:04:26.243Z,-5.04
2023-03-02T01:05:26.213Z,-5.01
2023-03-02T01:06:26.462Z,-5.02
2023-03-02T01:07:26.517Z,-5.04
2023-03-02T01:08:26.142Z,-5.01
2023-03-02T01:09:26.420Z,-5.02
2023-03-02T01:10:25.856Z,-5.02
2023-03-02T01:11:26.341Z,-5.01
2023-03-02T01:12:26.354Z,-5.04
2023-03-02T01:13:26.297Z,-5.1
2023-03-02T01:14:26.310Z,-5.01
2023-03-02T01:15:25.996Z,-5.05
2023-03-02T01:16:26.185Z,-5.05
2023-03-02T01:17:25.950Z,-5.01
2023-03-02T01:18:25.791Z,-5.01
2023-03-02T01:19:26.166Z,-5.02
2023-03-02T01:20:25.877Z,-5.05
2023-03-02T01:21:26.130Z,-5.02
2023-03-02T01:22:25.844Z,-5.01
2023-03-02T01:23:25.855Z,-4.98
2023-03-02T01:24:26.060Z,-5.01
2023-03-02T01:25:26.082Z,-5.05
2023-03-02T01:26:25.746Z,-5.05
2023-03-02T01:27:25.987Z,-5.02
2023-03-02T01:28:25.967Z,-5.11
2023-03-02T01:29:25.692Z,-5.07
2023-03-02T01:30:25.913Z,-5.11
2023-03-02T01:31:25.770Z,-5.11
2023-03-02T01:32:26.085Z,-5.12
2023-03-02T01:34:25.839Z,-5.2
2023-03-02T01:35:25.959Z,-5.22
2023-03-02T01:36:25.271Z,-5.22
2023-03-02T01:37:25.789Z,-5.12
2023-03-02T01:38:26.028Z,-5.12
2023-03-02T01:39:25.763Z,-5.17
2023-03-02T01:40:25.433Z,-5.19
2023-03-02T01:41:25.709Z,-5.17
2023-03-02T01:42:25.659Z,-5.12
2023-03-02T01:43:25.667Z,-5.23
2023-03-02T01:44:25.596Z,-5.19
2023-03-02T01:45:25.740Z,-5.24
2023-03-02T01:46:25.556Z,-5.22
2023-03-02T01:47:25.540Z,-5.2
2023-03-02T01:48:25.507Z,-5.24
2023-03-02T01:49:25.227Z,-5.29
2023-03-02T01:50:25.482Z,-5.2
2023-03-02T01:51:24.924Z,-5.12
2023-03-02T01:52:25.454Z,-5.19
2023-03-02T01:53:25.412Z,-5.19
2023-03-02T01:54:25.721Z,-5.2
2023-03-02T01:55:25.411Z,-5.17
2023-03-02T01:56:25.328Z,-5.2
2023-03-02T01:57:25.122Z,-5.23
2023-03-02T01:58:25.338Z,-5.22
2023-03-02T01:59:25.272Z,-5.23
2023-03-02T02:00:25.233Z,-5.24
2023-03-02T02:01:25.193Z,-5.35
2023-03-02T02:02:24.945Z,-5.35
2023-03-02T02:03:25.176Z,-5.24
2023-03-02T02:04:25.186Z,-5.29
2023-03-02T02:05:24.879Z,-5.27
2023-03-02T02:06:24.841Z,-5.3
2023-03-02T02:07:25.079Z,-5.26
2023-03-02T02:08:25.064Z,-5.31
2023-03-02T02:09:24.782Z,-5.27
2023-03-02T02:10:25.040Z,-5.29
2023-03-02T02:11:25.451Z,-5.29
2023-03-02T02:12:24.850Z,-5.31
2023-03-02T02:13:25.399Z,-5.35
2023-03-02T02:14:25.111Z,-5.31
2023-03-02T02:15:25.313Z,-5.29
2023-03-02T02:16:25.976Z,-5.26
2023-03-02T02:17:25.563Z,-5.26
2023-03-02T02:18:25.836Z,-5.17
2023-03-02T02:19:25.263Z,-5.23
2023-03-02T02:20:25.767Z,-5.2
2023-03-02T02:21:25.468Z,-5.19
2023-03-02T02:22:25.454Z,-5.2
2023-03-02T02:23:25.711Z,-5.2
2023-03-02T02:24:25.426Z,-5.22
2023-03-02T02:25:25.779Z,-5.2
2023-03-02T02:26:25.355Z,-5.22
2023-03-02T02:27:25.420Z,-5.23
2023-03-02T02:28:25.579Z,-5.19
2023-03-02T02:29:25.337Z,-5.12
2023-03-02T02:30:25.543Z,-5.19
2023-03-02T02:31:25.681Z,-5.12
2023-03-02T02:32:25.621Z,-5.1
2023-03-02T02:33:25.212Z,-5.17
2023-03-02T02:34:25.506Z,-5.2
2023-03-02T02:35:25.597Z,-5.24
2023-03-02T02:36:25.427Z,-5.22
2023-03-02T02:37:24.858Z,-5.23
2023-03-02T02:38:25.371Z,-5.17
2023-03-02T02:39:25.071Z,-5.2
2023-03-02T02:40:25.637Z,-5.19
2023-03-02T02:41:25.616Z,-5.17
2023-03-02T02:42:25.319Z,-5.12
2023-03-02T02:43:25.614Z,-5.23
2023-03-02T02:44:25.280Z,-5.14
2023-03-02T02:45:25.562Z,-5.17
2023-03-02T02:46:25.334Z,-5.17
2023-03-02T02:47:25.499Z,-5.11
2023-03-02T02:48:24.939Z,-5.2
2023-03-02T02:49:25.436Z,-5.26
2023-03-02T02:50:24.880Z,-5.17
2023-03-02T02:51:25.110Z,-5.22
2023-03-02T02:52:25.371Z,-5.19
2023-03-02T02:53:25.335Z,-5.23
2023-03-02T02:54:25.325Z,-5.23
2023-03-02T02:55:25.298Z,-5.29
2023-03-02T02:56:25.265Z,-5.24
2023-03-02T02:57:24.978Z,-5.26
2023-03-02T02:58:24.993Z,-5.23
2023-03-02T02:59:25.007Z,-5.31
2023-03-02T03:00:24.917Z,-5.22
2023-03-02T03:01:25.236Z,-5.31
2023-03-02T03:02:24.615Z,-5.29
2023-03-02T03:03:24.590Z,-5.27
2023-03-02T03:04:25.389Z,-5.29
2023-03-02T03:05:25.085Z,-5.33
2023-03-02T03:06:24.790Z,-5.22
2023-03-02T03:07:25.035Z,-5.31
2023-03-02T03:08:24.730Z,-5.29
2023-03-02T03:09:24.868Z,-5.22
2023-03-02T03:10:24.707Z,-5.23
2023-03-02T03:11:24.667Z,-5.23
2023-03-02T03:12:24.653Z,-5.2
2023-03-02T03:13:24.375Z,-5.17
2023-03-02T03:14:24.861Z,-5.19
2023-03-02T03:15:24.662Z,-5.17
2023-03-02T03:16:24.686Z,-5.11
2023-03-02T03:17:24.807Z,-5.19
2023-03-02T03:18:24.772Z,-5.2
2023-03-02T03:19:24.250Z,-5.23
2023-03-02T03:20:25.278Z,-5.08
2023-03-02T03:21:25.245Z,-5.2
2023-03-02T03:22:25.212Z,-5.14
2023-03-02T03:23:25.239Z,-5.14
2023-03-02T03:24:25.179Z,-5.17
2023-03-02T03:25:25.194Z,-5.2
2023-03-02T03:26:25.122Z,-5.2
2023-03-02T03:27:25.118Z,-5.23
2023-03-02T03:28:25.339Z,-5.29
2023-03-02T03:29:25.061Z,-5.26
2023-03-02T03:30:25.061Z,-5.37
2023-03-02T03:31:25.669Z,-5.27
2023-03-02T03:32:25.415Z,-5.26
2023-03-02T03:49:58.522Z,-5.42
2023-03-02T03:50:58.406Z,-5.5
2023-03-02T03:51:58.125Z,-5.5
2023-03-02T03:52:58.100Z,-5.44
2023-03-02T03:53:58.371Z,-5.45
2023-03-02T03:54:57.805Z,-5.52
2023-03-02T03:55:58.029Z,-5.47
2023-03-02T03:56:58.280Z,-5.55
2023-03-02T03:57:58.251Z,-5.47
2023-03-02T03:58:58.254Z,-5.48
2023-03-02T03:59:58.183Z,-5.51
2023-03-02T04:00:58.165Z,-5.51
2023-03-02T04:01:58.364Z,-5.41
2023-03-02T04:02:58.170Z,-5.48
2023-03-02T04:03:57.843Z,-5.5
2023-03-02T04:04:58.082Z,-5.56
2023-03-02T04:05:58.129Z,-5.48
2023-03-02T04:06:58.038Z,-5.44
2023-03-02T04:07:58.004Z,-5.48
2023-03-02T04:08:57.980Z,-5.47
2023-03-02T04:09:57.707Z,-5.5
2023-03-02T04:10:57.419Z,-5.48
2023-03-02T04:11:57.968Z,-5.5
2023-03-02T04:12:57.702Z,-5.5
2023-03-02T04:13:57.353Z,-5.52
2023-03-02T04:14:57.847Z,-5.51
2023-03-02T04:15:58.059Z,-5.5
2023-03-02T04:16:57.812Z,-5.5
2023-03-02T04:17:57.526Z,-5.47
2023-03-02T04:18:57.520Z,-5.52
2023-03-02T04:19:57.504Z,-5.48
2023-03-02T04:20:57.703Z,-5.47
2023-03-02T04:21:57.758Z,-5.48
2023-03-02T04:22:57.405Z,-5.48
2023-03-02T04:23:57.638Z,-5.48
2023-03-02T04:24:57.649Z,-5.5
2023-03-02T04:25:57.347Z,-5.48
2023-03-02T04:26:57.361Z,-5.47
2023-03-02T04:27:57.562Z,-5.48
2023-03-02T04:28:57.552Z,-5.51
2023-03-02T04:29:57.501Z,-5.51
2023-03-02T04:30:57.620Z,-5.45
2023-03-02T04:31:57.614Z,-5.48
2023-03-02T04:32:57.519Z,-5.45
2023-03-02T04:33:57.165Z,-5.51
2023-03-02T04:34:57.393Z,-5.47
2023-03-02T04:35:57.307Z,-5.41
2023-03-02T04:36:57.343Z,-5.37
2023-03-02T04:37:57.454Z,-5.42
2023-03-02T04:38:57.322Z,-5.42
2023-03-02T04:39:57.032Z,-5.47
2023-03-02T04:40:57.005Z,-5.5
2023-03-02T04:41:57.244Z,-5.48
2023-03-02T04:42:57.218Z,-5.48
2023-03-02T04:43:56.960Z,-5.48
2023-03-02T04:44:57.180Z,-5.5
2023-03-02T04:45:56.906Z,-5.51
2023-03-02T04:46:57.109Z,-5.47
2023-03-02T04:47:56.852Z,-5.5
2023-03-02T04:48:57.110Z,-5.44
2023-03-02T04:49:56.839Z,-5.5
2023-03-02T04:50:57.070Z,-5.45
2023-03-02T04:51:57.024Z,-5.55
2023-03-02T04:52:56.493Z,-5.48
2023-03-02T04:53:57.172Z,-5.5
2023-03-02T04:54:56.691Z,-5.52
2023-03-02T04:55:56.933Z,-5.56
2023-03-02T04:56:56.676Z,-5.47
2023-03-02T04:57:56.881Z,-5.45
2023-03-02T04:58:56.631Z,-5.44
2023-03-02T04:59:56.594Z,-5.41
2023-03-02T05:00:56.815Z,-5.42
2023-03-02T05:01:56.686Z,-5.38
2023-03-02T05:02:56.784Z,-5.37
2023-03-02T05:03:56.782Z,-5.35
2023-03-02T05:04:56.985Z,-5.41
2023-03-02T05:05:56.440Z,-5.41
2023-03-02T05:06:56.426Z,-5.35
2023-03-02T05:07:56.949Z,-5.41
2023-03-02T05:08:56.931Z,-5.5
2023-03-02T05:09:56.988Z,-5.5
2023-03-02T05:10:56.899Z,-5.42
2023-03-02T05:11:56.624Z,-5.44
2023-03-02T05:12:56.874Z,-5.5
2023-03-02T05:13:56.581Z,-5.44
2023-03-02T05:14:56.275Z,-5.48
2023-03-02T05:15:56.630Z,-5.52
2023-03-02T05:16:56.758Z,-5.41
2023-03-02T05:17:56.732Z,-5.42
2023-03-02T05:18:56.445Z,-5.33
2023-03-02T05:19:56.680Z,-5.33
2023-03-02T05:20:56.655Z,-5.44
2023-03-02T05:21:56.647Z,-5.51
2023-03-02T05:22:56.620Z,-5.51
2023-03-02T05:23:56.599Z,-5.42
2023-03-02T05:24:56.586Z,-5.48
2023-03-02T05:25:56.678Z,-5.51
2023-03-02T05:26:56.010Z,-5.51
2023-03-02T05:27:56.259Z,-5.47
2023-03-02T05:28:58.835Z,-5.47
2023-03-02T05:29:56.459Z,-5.47
2023-03-02T05:30:56.193Z,-5.47
2023-03-02T05:31:56.999Z,-5.47
2023-03-02T05:32:56.465Z,-5.37
2023-03-02T05:33:56.705Z,-5.31
2023-03-02T05:34:56.140Z,-5.2
2023-03-02T05:35:56.418Z,-5.12
2023-03-02T05:36:56.118Z,-5.12
2023-03-02T05:37:56.095Z,-5.05
2023-03-02T05:38:56.315Z,-5.05
2023-03-02T05:39:56.299Z,-5.02
2023-03-02T05:40:55.763Z,-4.98
2023-03-02T05:41:56.363Z,-5
2023-03-02T05:42:56.231Z,-4.92
2023-03-02T05:43:55.956Z,-4.92
2023-03-02T05:44:55.917Z,-4.92
2023-03-02T05:45:56.164Z,-4.93
2023-03-02T05:46:56.307Z,-4.92
2023-03-02T05:47:56.110Z,-4.86
2023-03-02T05:48:56.097Z,-4.97
2023-03-02T05:49:55.822Z,-5.02
2023-03-02T05:50:56.049Z,-4.97
2023-03-02T05:51:56.037Z,-5.07
2023-03-02T05:52:55.510Z,-5.04
2023-03-02T05:53:55.743Z,-5.08
2023-03-02T05:54:56.266Z,-5.01
2023-03-02T05:55:55.943Z,-5.07
2023-03-02T05:56:55.656Z,-5.01
2023-03-02T05:57:55.979Z,-5.01
2023-03-02T05:58:55.886Z,-5.11
2023-03-02T05:59:55.595Z,-5.01
2023-03-02T06:00:55.827Z,-5.05
2023-03-02T06:01:55.913Z,-5.08
2023-03-02T06:02:56.082Z,-5.1
2023-03-02T06:03:55.751Z,-5.08
2023-03-02T06:04:55.748Z,-5.07
2023-03-02T06:05:55.611Z,-5.14
2023-03-02T06:06:55.688Z,-5.1
2023-03-02T06:07:55.677Z,-5.17
2023-03-02T06:08:55.646Z,-5.2
2023-03-02T06:09:55.359Z,-5.05
2023-03-02T06:10:55.614Z,-5.11
2023-03-02T06:11:55.316Z,-5.12
2023-03-02T06:12:55.335Z,-5.12
2023-03-02T06:13:55.610Z,-5.07
2023-03-02T06:14:55.541Z,-5.07
2023-03-02T06:15:55.481Z,-5.1
2023-03-02T06:16:55.495Z,-5.07
2023-03-02T06:17:55.189Z,-5.04
2023-03-02T06:18:55.197Z,-5.01
2023-03-02T06:19:55.145Z,-5.02
2023-03-02T06:20:55.136Z,-5.05
2023-03-02T06:21:55.100Z,-5.01
2023-03-02T06:22:55.499Z,-5.01
2023-03-02T06:23:54.791Z,-4.94
2023-03-02T06:24:55.034Z,-4.94
2023-03-02T06:25:55.254Z,-4.89
2023-03-02T06:26:55.235Z,-4.94
2023-03-02T06:27:55.221Z,-4.86
2023-03-02T06:28:58.819Z,-4.87
2023-03-02T06:29:55.193Z,-4.9
2023-03-02T06:30:55.164Z,-4.89
2023-03-02T06:31:55.698Z,-4.86
2023-03-02T06:32:55.144Z,-4.82
2023-03-02T06:33:54.833Z,-4.89
2023-03-02T06:34:54.908Z,-4.86
2023-03-02T06:35:55.777Z,-4.9
2023-03-02T06:36:55.175Z,-4.93
2023-03-02T06:37:55.164Z,-4.87
2023-03-02T06:38:55.467Z,-4.89
2023-03-02T06:39:55.396Z,-4.87
2023-03-02T06:40:55.080Z,-4.89
2023-03-02T06:41:55.079Z,-4.82
2023-03-02T06:42:55.063Z,-4.84
2023-03-02T06:43:55.305Z,-4.87
2023-03-02T06:44:55.378Z,-4.86
2023-03-02T06:45:55.555Z,-4.83
2023-03-02T06:46:55.215Z,-4.86
2023-03-02T06:47:55.194Z,-4.84
2023-03-02T06:48:55.173Z,-4.8
2023-03-02T06:49:54.913Z,-4.75
2023-03-02T06:50:55.145Z,-4.72
2023-03-02T06:51:54.849Z,-4.73
2023-03-02T06:52:55.080Z,-4.79
2023-03-02T06:53:54.578Z,-4.71
2023-03-02T06:54:55.050Z,-4.68
2023-03-02T06:55:54.779Z,-4.62
2023-03-02T06:56:55.004Z,-4.63
2023-03-02T06:57:54.985Z,-4.65
2023-03-02T06:58:54.693Z,-4.63
2023-03-02T06:59:54.931Z,-4.55
2023-03-02T07:00:55.081Z,-4.5
2023-03-02T07:01:54.904Z,-4.54
2023-03-02T07:02:54.628Z,-4.51
2023-03-02T07:03:54.756Z,-4.54
2023-03-02T07:04:54.824Z,-4.5
2023-03-02T07:05:54.544Z,-4.5
2023-03-02T07:06:54.519Z,-4.44
2023-03-02T07:07:54.792Z,-4.48
2023-03-02T07:08:54.492Z,-4.45
2023-03-02T07:09:54.721Z,-4.33
2023-03-02T07:10:54.429Z,-4.33
2023-03-02T07:11:54.407Z,-4.3
2023-03-02T07:12:54.378Z,-4.29
2023-03-02T07:13:54.625Z,-4.33
2023-03-02T07:14:54.670Z,-4.33
2023-03-02T07:15:54.316Z,-4.22
2023-03-02T07:16:54.802Z,-4.3
2023-03-02T07:17:54.345Z,-4.26
2023-03-02T07:18:54.240Z,-4.15
2023-03-02T07:19:53.976Z,-4.25
2023-03-02T07:20:54.463Z,-4.16
2023-03-02T07:21:54.434Z,-4.22
2023-03-02T07:22:54.417Z,-4.12
2023-03-02T07:23:54.451Z,-4.12
2023-03-02T07:24:54.132Z,-4.09
2023-03-02T07:25:54.348Z,-4.04
2023-03-02T07:26:54.326Z,-4.04
2023-03-02T07:27:54.045Z,-4.09
2023-03-02T07:28:54.036Z,-4.04
2023-03-02T07:29:54.190Z,-3.98
2023-03-02T07:30:54.136Z,-3.98
2023-03-02T07:31:54.012Z,-3.82
2023-03-02T07:32:54.330Z,-3.8
2023-03-02T07:33:53.949Z,-3.8
2023-03-02T07:34:54.169Z,-3.76
2023-03-02T07:35:54.306Z,-3.77
2023-03-02T07:36:53.848Z,-3.76
2023-03-02T07:37:53.836Z,-3.58
2023-03-02T07:38:54.070Z,-3.61
2023-03-02T07:39:54.048Z,-3.53
2023-03-02T07:40:53.753Z,-3.45
2023-03-02T07:41:53.742Z,-3.48
2023-03-02T07:42:53.709Z,-3.56
2023-03-02T07:43:53.711Z,-3.42
2023-03-02T07:44:53.680Z,-3.38
2023-03-02T07:45:53.912Z,-3.38
2023-03-02T07:46:54.101Z,-3.33
2023-03-02T07:47:53.875Z,-3.29
2023-03-02T07:48:53.890Z,-3.32
2023-03-02T07:49:53.860Z,-3.21
2023-03-02T07:50:53.538Z,-3.15
2023-03-02T07:51:53.806Z,-3.17
2023-03-02T07:52:53.787Z,-3.04
2023-03-02T07:53:53.481Z,-3.04
2023-03-02T07:54:53.721Z,-3.06
2023-03-02T07:55:53.690Z,-3.07
2023-03-02T07:56:53.687Z,-3
2023-03-02T07:57:53.655Z,-2.88
2023-03-02T07:58:53.638Z,-2.83
2023-03-02T07:59:53.555Z,-2.82
2023-03-02T08:00:53.353Z,-2.79
2023-03-02T08:01:54.261Z,-2.78
2023-03-02T08:02:53.630Z,-2.78
2023-03-02T08:03:53.516Z,-2.64
2023-03-02T08:04:53.552Z,-2.64
2023-03-02T08:05:53.388Z,-2.5
2023-03-02T08:06:53.463Z,-2.49
2023-03-02T08:07:53.450Z,-2.47
2023-03-02T08:08:53.424Z,-2.34
2023-03-02T08:09:53.429Z,-2.32
2023-03-02T08:10:52.889Z,-2.34
2023-03-02T08:11:53.357Z,-2.32
2023-03-02T08:12:53.079Z,-2.18
2023-03-02T08:13:53.301Z,-2.1
2023-03-02T08:14:53.038Z,-2
2023-03-02T08:15:53.399Z,-1.89
2023-03-02T08:16:53.242Z,-1.85
2023-03-02T08:17:53.035Z,-1.7
2023-03-02T08:18:52.979Z,-1.6
2023-03-02T08:19:53.213Z,-1.6
2023-03-02T08:20:53.065Z,-1.53
2023-03-02T08:21:53.271Z,-1.48
2023-03-02T08:22:53.149Z,-1.5
2023-03-02T08:23:53.346Z,-1.34
2023-03-02T08:24:53.098Z,-1.38
2023-03-02T08:25:52.797Z,-1.32
2023-03-02T08:26:52.773Z,-1.19
2023-03-02T08:27:53.048Z,-1.19
2023-03-02T08:28:52.748Z,-1.1
2023-03-02T08:29:52.724Z,-1.1
2023-03-02T08:30:52.980Z,-0.95
2023-03-02T08:31:53.355Z,-0.92
2023-03-02T08:32:53.191Z,-0.85
2023-03-02T08:33:52.640Z,-0.76
2023-03-02T08:34:52.877Z,-0.74
2023-03-02T08:35:55.303Z,-0.69
2023-03-02T08:36:52.597Z,-0.69
2023-03-02T08:37:52.836Z,-0.67
2023-03-02T08:38:52.667Z,-0.61
2023-03-02T08:39:52.559Z,-0.59
2023-03-02T08:40:52.783Z,-0.54
2023-03-02T08:41:52.721Z,-0.51
2023-03-02T08:42:52.719Z,-0.45
2023-03-02T08:43:52.694Z,-0.41
2023-03-02T08:44:52.451Z,-0.46
2023-03-02T08:45:52.586Z,-0.41
2023-03-02T08:46:52.643Z,-0.33
2023-03-02T08:47:52.076Z,-0.33
2023-03-02T08:48:52.670Z,-0.3
2023-03-02T08:49:53.215Z,-0.19
2023-03-02T08:50:52.592Z,-0.18
2023-03-02T08:51:52.038Z,-0.16
2023-03-02T08:52:52.620Z,-0.1
2023-03-02T08:53:52.501Z,0.02
2023-03-02T08:54:52.647Z,-0.04
2023-03-02T08:55:52.196Z,0.09
2023-03-02T08:56:51.915Z,0.09
2023-03-02T08:57:52.148Z,0.06
2023-03-02T08:58:52.198Z,0.16
2023-03-02T08:59:52.386Z,0.16
2023-03-02T09:00:52.327Z,0.19
2023-03-02T09:01:52.543Z,0.24
2023-03-02T09:02:52.327Z,0.19
2023-03-02T09:03:53.374Z,0.26
2023-03-02T09:04:52.476Z,0.28
2023-03-02T09:05:52.266Z,0.34
2023-03-02T09:06:51.846Z,0.45
2023-03-02T09:07:51.719Z,0.38
2023-03-02T09:08:52.002Z,0.48
2023-03-02T09:09:52.200Z,0.58
2023-03-02T09:10:52.143Z,0.66
2023-03-02T09:11:52.127Z,0.72
2023-03-02T09:12:52.096Z,0.82
2023-03-02T09:13:52.086Z,0.82
2023-03-02T09:14:52.051Z,0.92
2023-03-02T09:15:52.068Z,0.94
2023-03-02T09:16:51.895Z,1.04
2023-03-02T09:17:52.023Z,1.1
2023-03-02T09:18:52.011Z,1.18
2023-03-02T09:19:51.713Z,1.24
2023-03-02T09:20:51.672Z,1.33
2023-03-02T09:21:51.693Z,1.47
2023-03-02T09:22:51.900Z,1.5
2023-03-02T09:23:51.781Z,1.58
2023-03-02T09:24:52.009Z,1.65
2023-03-02T09:25:51.971Z,1.75
2023-03-02T09:26:51.922Z,1.86
2023-03-02T09:27:51.953Z,2.05
2023-03-02T09:28:51.893Z,2.12
2023-03-02T09:29:51.888Z,2.23
2023-03-02T09:30:51.592Z,2.31
2023-03-02T09:31:52.050Z,2.36
2023-03-02T09:32:52.120Z,2.45
2023-03-02T09:33:51.817Z,2.54
2023-03-02T09:34:51.524Z,2.6
2023-03-02T09:35:51.798Z,2.59
2023-03-02T09:36:51.486Z,2.69
2023-03-02T09:37:52.007Z,2.72
2023-03-02T09:38:51.803Z,2.81
2023-03-02T09:39:51.839Z,2.83
2023-03-02T09:40:51.718Z,2.83
2023-03-02T09:41:51.727Z,2.85
2023-03-02T09:42:51.640Z,2.8
2023-03-02T09:43:51.627Z,2.85
2023-03-02T09:44:51.067Z,2.87
2023-03-02T09:45:51.474Z,2.84
2023-03-02T09:46:51.566Z,2.77
2023-03-02T09:47:51.280Z,2.77
2023-03-02T09:48:50.999Z,2.85
2023-03-02T09:49:51.509Z,2.83
2023-03-02T09:50:51.473Z,2.9
2023-03-02T09:51:51.202Z,2.99
2023-03-02T09:52:51.486Z,2.93
2023-03-02T09:53:51.164Z,3.13
2023-03-02T09:54:51.156Z,3.13
2023-03-02T09:55:51.409Z,3.21
2023-03-02T09:56:51.404Z,3.32
2023-03-02T09:57:51.209Z,3.46
2023-03-02T09:58:51.094Z,3.51
2023-03-02T09:59:51.062Z,3.49
2023-03-02T10:00:51.293Z,3.57
2023-03-02T10:01:51.008Z,3.49
2023-03-02T10:02:51.466Z,3.54
2023-03-02T10:03:51.592Z,3.51
2023-03-02T10:04:51.144Z,3.53
2023-03-02T10:05:51.255Z,3.53
2023-03-02T10:06:50.944Z,3.45
2023-03-02T10:07:51.184Z,3.4
2023-03-02T10:08:50.883Z,3.51
2023-03-02T10:09:51.126Z,3.46
2023-03-02T10:10:50.856Z,3.49
2023-03-02T10:11:51.107Z,3.49
2023-03-02T10:12:50.955Z,3.63
2023-03-02T10:13:52.247Z,3.71
2023-03-02T10:14:51.043Z,3.86
2023-03-02T10:15:51.301Z,3.96
2023-03-02T10:16:50.767Z,4.11
2023-03-02T10:17:51.057Z,4.18
2023-03-02T10:18:51.095Z,4.32
2023-03-02T10:19:50.960Z,4.28
2023-03-02T10:20:50.924Z,4.36
2023-03-02T10:21:50.948Z,4.47
2023-03-02T10:22:50.624Z,4.58
2023-03-02T10:23:50.881Z,4.6
2023-03-02T10:24:50.370Z,4.6
2023-03-02T10:25:50.356Z,4.65
2023-03-02T10:26:50.845Z,4.71
2023-03-02T10:27:50.549Z,4.78
2023-03-02T10:28:50.862Z,4.76
2023-03-02T10:29:51.038Z,4.84
2023-03-02T10:30:50.658Z,4.79
2023-03-02T10:31:50.622Z,4.85
2023-03-02T10:32:50.739Z,4.94
2023-03-02T10:33:50.186Z,5.02
2023-03-02T10:34:50.769Z,5.05
2023-03-02T10:35:50.870Z,5.06
2023-03-02T10:36:50.405Z,5.03
2023-03-02T10:37:50.881Z,5.08
2023-03-02T10:38:50.642Z,5.12
2023-03-02T10:39:50.381Z,5.03
2023-03-02T10:40:50.569Z,5.08
2023-03-02T10:41:50.341Z,5.05
2023-03-02T10:42:50.176Z,5.21
2023-03-02T10:43:50.287Z,5.16
2023-03-02T10:44:50.617Z,5.16
2023-03-02T10:45:50.747Z,5.18
2023-03-02T10:46:50.646Z,5.23
2023-03-02T10:47:50.244Z,5.39
2023-03-02T10:48:54.072Z,5.41
2023-03-02T10:49:50.159Z,5.41
2023-03-02T10:50:50.415Z,5.54
2023-03-02T10:51:49.884Z,5.63
2023-03-02T10:53:05.919Z,5.62
2023-03-02T10:53:50.390Z,5.62
2023-03-02T10:54:50.345Z,5.66
2023-03-02T10:55:50.078Z,5.8
2023-03-02T10:56:50.330Z,5.81
2023-03-02T10:57:50.034Z,5.92
2023-03-02T10:58:50.260Z,5.89
2023-03-02T10:59:50.091Z,5.98
2023-03-02T11:00:50.279Z,6.07
2023-03-02T11:01:50.404Z,6.2
2023-03-02T11:02:50.217Z,6.26
2023-03-02T11:03:49.945Z,6.34
2023-03-02T11:04:50.356Z,6.28
2023-03-02T11:05:50.222Z,6.33
2023-03-02T11:06:50.735Z,6.34
2023-03-02T11:07:50.709Z,6.28
2023-03-02T11:08:50.742Z,6.39
2023-03-02T11:09:50.679Z,6.37
2023-03-02T11:10:50.113Z,6.34
2023-03-02T11:11:50.742Z,6.34
2023-03-02T11:12:50.586Z,6.33
2023-03-02T11:13:50.071Z,6.36
2023-03-02T11:14:50.563Z,6.42
2023-03-02T11:15:50.750Z,6.47
2023-03-02T11:16:50.645Z,6.52
2023-03-02T11:17:50.543Z,6.46
2023-03-02T11:18:50.235Z,6.43
2023-03-02T11:19:50.218Z,6.33
2023-03-02T11:20:50.197Z,6.42
2023-03-02T11:21:50.183Z,6.37
2023-03-02T11:22:50.438Z,6.4
2023-03-02T11:23:50.152Z,6.39
2023-03-02T11:24:50.386Z,6.37
2023-03-02T11:25:50.117Z,6.29
2023-03-02T11:26:50.140Z,6.31
2023-03-02T11:27:50.093Z,6.21
2023-03-02T11:28:50.063Z,6.21
2023-03-02T11:29:50.333Z,6.15
2023-03-02T11:30:50.040Z,6.13
2023-03-02T11:31:50.424Z,6.24
2023-03-02T11:32:50.599Z,6.07
2023-03-02T11:33:50.729Z,6.24
2023-03-02T11:34:50.237Z,6.26
2023-03-02T11:35:50.436Z,6.36
2023-03-02T11:36:50.195Z,6.4
2023-03-02T11:37:49.938Z,6.46
2023-03-02T11:38:50.167Z,6.58
2023-03-02T11:39:59.691Z,6.51
2023-03-02T11:40:51.878Z,6.39
2023-03-02T11:41:50.174Z,6.4
2023-03-02T11:42:50.132Z,6.39
2023-03-02T11:43:49.827Z,6.47
2023-03-02T11:44:50.083Z,6.39
2023-03-02T11:45:50.056Z,6.36
2023-03-02T11:46:50.034Z,6.28
2023-03-02T11:48:04.091Z,6.26
2023-03-02T11:48:50.040Z,6.28
2023-03-02T11:49:50.016Z,6.34
2023-03-02T11:50:49.994Z,6.26
2023-03-02T11:52:02.258Z,6.34
2023-03-02T11:52:49.975Z,6.31
2023-03-02T11:53:49.838Z,6.21
2023-03-02T11:54:49.978Z,6.06
2023-03-02T11:55:49.917Z,5.96
2023-03-02T11:56:49.620Z,6.05
2023-03-02T11:57:49.613Z,6.05
2023-03-02T11:58:49.851Z,5.91
2023-03-02T11:59:49.575Z,5.89
2023-03-02T12:00:49.831Z,5.81
2023-03-02T12:01:50.141Z,5.81
2023-03-02T12:02:49.786Z,5.77
2023-03-02T12:03:49.826Z,5.69
2023-03-02T12:04:49.512Z,5.7
2023-03-02T12:05:49.733Z,5.6
2023-03-02T12:06:49.713Z,5.6
2023-03-02T12:07:49.615Z,5.66
2023-03-02T12:08:49.875Z,5.6
2023-03-02T12:09:49.412Z,5.51
2023-03-02T12:10:49.664Z,5.6
2023-03-02T12:11:49.629Z,5.6
2023-03-02T12:12:49.375Z,5.55
2023-03-02T12:13:49.599Z,5.69
2023-03-02T12:14:49.071Z,5.63
2023-03-02T12:15:49.565Z,5.62
2023-03-02T12:16:49.399Z,5.62
2023-03-02T12:17:49.624Z,5.59
2023-03-02T12:18:49.267Z,5.62
2023-03-02T12:19:49.529Z,5.67
2023-03-02T12:20:49.680Z,5.66
2023-03-02T12:21:49.246Z,5.64
2023-03-02T12:22:49.192Z,5.72
2023-03-02T12:23:49.444Z,5.75
2023-03-02T12:24:49.168Z,5.8
2023-03-02T12:25:49.157Z,5.78
2023-03-02T12:26:49.135Z,5.78
2023-03-02T12:27:49.152Z,5.72
2023-03-02T12:28:49.351Z,5.69
2023-03-02T12:29:49.083Z,5.67
2023-03-02T12:30:49.064Z,5.7
2023-03-02T12:31:49.564Z,5.7
2023-03-02T12:32:49.298Z,5.75
2023-03-02T12:33:49.328Z,5.73
2023-03-02T12:34:49.370Z,5.73
2023-03-02T12:35:49.469Z,5.73
2023-03-02T12:36:49.392Z,5.69
2023-03-02T12:37:49.233Z,5.6
2023-03-02T12:38:49.060Z,5.59
2023-03-02T12:39:49.179Z,5.6
2023-03-02T12:40:49.177Z,5.46
2023-03-02T12:41:48.745Z,5.57
2023-03-02T12:42:49.128Z,5.57
2023-03-02T12:43:48.629Z,5.55
2023-03-02T12:44:48.830Z,5.49
2023-03-02T12:45:49.182Z,5.37
2023-03-02T12:46:48.599Z,5.37
2023-03-02T12:47:50.699Z,5.51
2023-03-02T12:48:50.810Z,5.39
2023-03-02T12:49:49.040Z,5.39
2023-03-02T12:50:48.759Z,5.42
2023-03-02T12:51:49.385Z,5.48
2023-03-02T12:52:48.753Z,5.44
2023-03-02T12:53:49.005Z,5.42
2023-03-02T12:54:48.928Z,5.37
2023-03-02T12:55:48.820Z,5.44
2023-03-02T12:56:49.417Z,5.39
2023-03-02T12:57:49.364Z,5.42
2023-03-02T12:58:49.119Z,5.39
2023-03-02T12:59:49.320Z,5.37
2023-03-02T13:00:49.213Z,5.36
2023-03-02T13:01:49.033Z,5.44
2023-03-02T13:02:49.428Z,5.41
2023-03-02T13:03:49.164Z,5.33
2023-03-02T13:04:48.972Z,5.42
2023-03-02T13:05:48.961Z,5.37
2023-03-02T13:06:49.198Z,5.44
2023-03-02T13:07:49.038Z,5.46
2023-03-02T13:08:49.297Z,5.41
2023-03-02T13:10:00.578Z,5.45
2023-03-02T13:10:49.575Z,5.39
2023-03-02T13:11:49.568Z,5.39
2023-03-02T13:12:49.037Z,5.44
2023-03-02T13:13:49.958Z,5.41
2023-03-02T13:14:49.514Z,5.59
2023-03-02T13:15:48.965Z,5.45
2023-03-02T13:16:49.379Z,5.46
2023-03-02T13:17:49.445Z,5.55
2023-03-02T13:18:49.189Z,5.63
2023-03-02T13:19:49.425Z,5.67
2023-03-02T13:20:49.427Z,5.75
2023-03-02T13:21:49.385Z,5.73